Time;durP1;ratioP1;P1;durP2;ratioP2;P2;SDS_P1;SDS_P2;PMS_P1;PMS_P2;Temp;Humidity;BMP_temperature;BMP_pressure;BME280_temperature;BME280_humidity;BME280_pressure;Samples;Min_cycle;Max_cycle;Signal;HPM_P1;HPM_P2
2021/12/15 00:00:31;;;;;;;61.30;31.15;;;5.40;99.90;;;;;;5133283;27;20429;-72
2021/12/15 00:02:56;;;;;;;61.25;30.50;;;5.50;99.90;;;;;;5133279;27;20058;-73
2021/12/15 00:05:25;;;;;;;59.50;29.75;;;5.50;99.90;;;;;;5125628;27;20057;-73
2021/12/15 00:07:58;;;;;;;60.25;30.35;;;5.50;99.90;;;;;;5115492;27;20031;-73
2021/12/15 00:10:24;;;;;;;57.03;28.80;;;5.50;99.90;;;;;;5132673;27;20841;-73
2021/12/15 00:12:50;;;;;;;58.72;29.48;;;5.60;99.90;;;;;;5133369;27;20027;-73
2021/12/15 00:15:17;;;;;;;58.20;29.98;;;5.60;99.90;;;;;;5132421;27;20376;-73
2021/12/15 00:17:43;;;;;;;59.58;29.58;;;5.60;99.90;;;;;;5132858;27;20046;-73
2021/12/15 00:20:13;;;;;;;67.25;31.38;;;5.50;99.90;;;;;;5132509;27;20030;-73
2021/12/15 00:22:39;;;;;;;53.50;28.20;;;5.50;99.90;;;;;;5132943;27;20031;-73
2021/12/15 00:25:06;;;;;;;57.45;28.75;;;5.50;99.90;;;;;;5132552;27;20347;-73
2021/12/15 00:27:33;;;;;;;56.05;28.42;;;5.50;99.90;;;;;;5130864;27;20077;-73
2021/12/15 00:29:58;;;;;;;53.50;28.13;;;5.50;99.90;;;;;;5129591;27;20439;-72
2021/12/15 00:32:24;;;;;;;53.60;28.83;;;5.50;99.90;;;;;;5131203;27;20024;-72
2021/12/15 00:34:51;;;;;;;55.88;28.13;;;5.40;99.90;;;;;;5128744;27;20525;-73
2021/12/15 00:37:20;;;;;;;54.33;28.92;;;5.50;99.90;;;;;;5112586;27;20084;-73
2021/12/15 00:39:47;;;;;;;53.00;27.20;;;5.50;99.90;;;;;;5113133;27;20068;-73
2021/12/15 00:42:13;;;;;;;56.72;28.27;;;5.40;99.90;;;;;;5124125;27;20026;-73
2021/12/15 00:44:39;;;;;;;55.05;28.83;;;5.40;99.90;;;;;;5131762;27;20031;-73
2021/12/15 00:47:06;;;;;;;55.45;28.98;;;5.50;99.90;;;;;;5130262;27;20108;-73
2021/12/15 00:49:32;;;;;;;62.67;30.25;;;5.40;99.90;;;;;;5131459;27;20438;-73
2021/12/15 00:51:58;;;;;;;59.65;30.67;;;5.40;99.90;;;;;;5115094;27;20110;-73
2021/12/15 00:54:25;;;;;;;64.82;31.45;;;5.40;99.90;;;;;;5130706;27;20095;-73
2021/12/15 00:56:52;;;;;;;54.72;30.13;;;5.50;99.90;;;;;;5128943;27;20055;-73
2021/12/15 00:59:18;;;;;;;56.10;29.65;;;5.50;99.90;;;;;;5131338;27;20123;-73
2021/12/15 01:01:44;;;;;;;54.97;28.90;;;5.50;99.90;;;;;;5131651;27;20026;-73
2021/12/15 01:04:12;;;;;;;58.45;30.35;;;5.50;99.90;;;;;;5130506;27;20024;-73
2021/12/15 01:06:39;;;;;;;57.38;29.88;;;5.60;99.90;;;;;;5130563;28;20042;-73
2021/12/15 01:09:12;;;;;;;60.22;30.92;;;5.50;99.90;;;;;;5130433;28;20032;-73
2021/12/15 01:22:22;;;;;;;57.53;28.92;;;5.60;99.90;;;;;;5127739;27;20020;-72
2021/12/15 01:24:48;;;;;;;58.53;29.25;;;5.60;99.90;;;;;;5135501;27;20015;-72
2021/12/15 01:27:14;;;;;;;57.38;30.08;;;5.60;99.90;;;;;;5134661;27;20016;-73
2021/12/15 01:29:40;;;;;;;59.05;30.02;;;5.60;99.90;;;;;;5135502;27;20036;-72
2021/12/15 01:32:06;;;;;;;64.63;30.13;;;5.60;99.90;;;;;;5134245;27;20067;-73
2021/12/15 01:34:32;;;;;;;57.42;29.33;;;5.50;99.90;;;;;;5135298;27;20019;-72
2021/12/15 01:36:58;;;;;;;60.72;30.13;;;5.50;99.90;;;;;;5135153;27;20532;-72
2021/12/15 01:39:25;;;;;;;62.47;31.25;;;5.50;99.90;;;;;;5134365;27;20101;-72
2021/12/15 01:41:54;;;;;;;65.43;30.15;;;5.40;99.90;;;;;;5131941;27;20031;-73
2021/12/15 01:46:56;;;;;;;64.60;32.03;;;5.40;99.90;;;;;;5135720;27;20047;-73
2021/12/15 01:49:27;;;;;;;67.80;32.05;;;5.40;99.90;;;;;;5134773;27;20027;-75
2021/12/15 01:51:55;;;;;;;70.15;31.92;;;5.40;99.90;;;;;;5115534;27;20043;-73
2021/12/15 01:54:23;;;;;;;59.65;29.67;;;5.40;99.90;;;;;;5115173;27;20473;-73
2021/12/15 01:56:50;;;;;;;55.85;28.77;;;5.40;99.90;;;;;;5134039;27;20023;-73
2021/12/15 01:59:18;;;;;;;62.60;30.67;;;5.40;99.90;;;;;;5115236;27;20118;-73
2021/12/15 02:01:44;;;;;;;59.60;29.30;;;5.50;99.90;;;;;;5134221;27;20026;-73
2021/12/15 02:04:10;;;;;;;61.75;29.95;;;5.40;99.90;;;;;;5133552;27;20027;-73
2021/12/15 02:06:41;;;;;;;63.53;31.13;;;5.40;99.90;;;;;;5131390;27;20048;-74
2021/12/15 02:09:06;;;;;;;63.15;29.35;;;5.40;99.90;;;;;;5132793;27;20072;-73
2021/12/15 02:11:32;;;;;;;61.05;29.40;;;5.40;99.90;;;;;;5134010;27;20023;-73
2021/12/15 02:13:58;;;;;;;57.95;28.83;;;5.40;99.90;;;;;;5134058;27;20066;-73
2021/12/15 02:16:24;;;;;;;52.05;27.55;;;5.40;99.90;;;;;;5133212;27;20613;-73
2021/12/15 02:18:49;;;;;;;54.95;28.23;;;5.40;99.90;;;;;;5134094;27;20478;-73
2021/12/15 02:21:19;;;;;;;57.45;27.77;;;5.50;99.90;;;;;;5132638;27;20513;-73
2021/12/15 02:23:51;;;;;;;58.53;28.92;;;5.40;99.90;;;;;;5133770;27;20324;-73
2021/12/15 02:26:27;;;;;;;63.28;29.27;;;5.40;99.90;;;;;;5134348;27;20039;-73
2021/12/15 02:28:59;;;;;;;61.13;29.00;;;5.40;99.90;;;;;;5134175;27;20083;-73
2021/12/15 02:31:41;;;;;;;55.13;27.13;;;5.30;99.90;;;;;;5134211;27;20102;-73
2021/12/15 02:39:30;;;;;;;59.58;29.42;;;5.40;99.90;;;;;;5134913;27;20053;-73
2021/12/15 02:41:56;;;;;;;59.63;29.13;;;5.30;99.90;;;;;;5135486;27;20031;-73
2021/12/15 02:44:24;;;;;;;64.47;29.25;;;5.30;99.90;;;;;;5134496;27;20387;-73
2021/12/15 02:46:51;;;;;;;60.65;29.52;;;5.30;99.90;;;;;;5135140;27;20072;-73
2021/12/15 02:49:21;;;;;;;58.15;26.50;;;5.30;99.90;;;;;;5134540;27;20039;-73
2021/12/15 02:51:50;;;;;;;58.00;27.65;;;5.30;99.90;;;;;;5134759;27;20046;-73
2021/12/15 02:54:18;;;;;;;59.28;27.92;;;5.30;99.90;;;;;;5116280;27;20027;-73
2021/12/15 02:56:45;;;;;;;50.20;24.10;;;5.30;99.90;;;;;;5135087;27;20029;-73
2021/12/15 02:59:13;;;;;;;50.80;25.38;;;5.30;99.90;;;;;;5134249;27;20027;-73
2021/12/15 03:02:03;;;;;;;49.30;24.95;;;5.40;99.90;;;;;;5116888;27;20383;-73
2021/12/15 03:07:25;;;;;;;52.97;26.20;;;5.40;99.90;;;;;;5134760;27;20065;-73
2021/12/15 03:15:29;;;;;;;49.50;25.58;;;5.40;99.90;;;;;;5133671;27;20502;-73
2021/12/15 03:18:16;;;;;;;50.47;25.02;;;5.40;99.90;;;;;;5134481;27;20027;-73
2021/12/15 03:20:50;;;;;;;45.90;22.55;;;5.40;99.90;;;;;;5134196;27;20034;-73
2021/12/15 03:23:36;;;;;;;51.78;24.38;;;5.40;99.90;;;;;;5133262;27;20053;-73
2021/12/15 03:26:03;;;;;;;55.72;27.23;;;5.40;99.90;;;;;;5134230;27;20026;-73
2021/12/15 03:34:14;;;;;;;45.22;22.98;;;5.40;99.90;;;;;;5134506;27;20026;-73
2021/12/15 03:39:33;;;;;;;34.80;19.25;;;5.40;99.90;;;;;;5133157;27;20035;-73
2021/12/15 03:42:03;;;;;;;34.33;18.92;;;5.40;99.90;;;;;;5133722;27;20479;-73
2021/12/15 03:44:32;;;;;;;42.72;22.15;;;5.40;99.90;;;;;;5133309;27;20461;-73
2021/12/15 03:47:00;;;;;;;42.30;20.98;;;5.40;99.90;;;;;;5133883;27;20467;-73
2021/12/15 03:49:26;;;;;;;37.28;19.77;;;5.40;99.90;;;;;;5133260;27;20035;-73
2021/12/15 03:51:52;;;;;;;35.50;18.95;;;5.40;99.90;;;;;;5133729;27;20068;-73
2021/12/15 03:54:17;;;;;;;38.45;19.70;;;5.40;99.90;;;;;;5133297;27;20027;-72
2021/12/15 03:56:46;;;;;;;39.08;20.60;;;5.40;99.90;;;;;;5134137;27;20031;-72
2021/12/15 03:59:11;;;;;;;40.97;20.63;;;5.40;99.90;;;;;;5132992;27;20027;-73
2021/12/15 04:01:38;;;;;;;42.00;22.55;;;5.40;99.90;;;;;;5133900;27;20034;-73
2021/12/15 04:04:06;;;;;;;42.08;21.83;;;5.40;99.90;;;;;;5115225;27;20371;-73
2021/12/15 04:06:36;;;;;;;43.00;23.50;;;5.40;99.90;;;;;;5133372;27;20025;-73
2021/12/15 04:09:05;;;;;;;49.85;24.92;;;5.40;99.90;;;;;;5133584;27;20420;-73
2021/12/15 04:11:34;;;;;;;41.95;22.70;;;5.40;99.90;;;;;;5132967;27;20537;-73
2021/12/15 04:14:08;;;;;;;46.75;24.48;;;5.40;99.90;;;;;;5133391;27;20080;-73
2021/12/15 04:19:01;;;;;;;43.20;22.75;;;5.40;99.90;;;;;;5133511;27;20503;-73
2021/12/15 04:21:27;;;;;;;34.28;19.38;;;5.40;99.90;;;;;;5132487;27;20212;-73
2021/12/15 04:23:55;;;;;;;32.38;17.73;;;5.40;99.90;;;;;;5133212;27;20156;-73
2021/12/15 04:26:21;;;;;;;31.88;16.15;;;5.40;99.90;;;;;;5131070;27;20034;-74
2021/12/15 04:28:47;;;;;;;26.23;14.57;;;5.40;99.90;;;;;;5132683;27;20035;-73
2021/12/15 04:31:16;;;;;;;23.85;14.10;;;5.40;99.90;;;;;;5132056;27;20456;-74
2021/12/15 04:33:54;;;;;;;24.63;14.57;;;5.40;99.90;;;;;;5132902;27;20479;-74
2021/12/15 04:36:23;;;;;;;24.17;13.38;;;5.40;99.90;;;;;;5132847;27;20035;-73
2021/12/15 04:38:49;;;;;;;21.73;13.07;;;5.40;99.90;;;;;;5132076;27;20395;-73
2021/12/15 04:41:17;;;;;;;22.52;12.13;;;5.40;99.90;;;;;;5132354;27;20027;-74
2021/12/15 04:43:44;;;;;;;19.23;11.90;;;5.40;99.90;;;;;;5133358;27;20046;-73
2021/12/15 04:46:11;;;;;;;22.67;12.35;;;5.40;99.90;;;;;;5132108;27;20130;-74
2021/12/15 04:48:43;;;;;;;21.30;12.25;;;5.40;99.90;;;;;;5131904;27;20065;-73
2021/12/15 04:51:09;;;;;;;22.27;13.80;;;5.40;99.90;;;;;;5132245;27;20185;-74
2021/12/15 04:53:37;;;;;;;22.67;13.55;;;5.40;99.90;;;;;;5132717;27;20076;-73
2021/12/15 04:56:04;;;;;;;27.33;16.17;;;5.40;99.90;;;;;;5132863;27;20467;-73
2021/12/15 04:58:30;;;;;;;26.75;15.35;;;5.40;99.90;;;;;;5132239;27;20584;-73
2021/12/15 05:00:59;;;;;;;30.00;17.13;;;5.40;99.90;;;;;;5133327;27;20023;-73
2021/12/15 05:03:25;;;;;;;24.33;16.00;;;5.40;99.90;;;;;;5132162;27;20383;-73
2021/12/15 05:05:51;;;;;;;28.23;15.70;;;5.40;99.90;;;;;;5132854;27;20027;-73
2021/12/15 05:08:17;;;;;;;28.58;16.95;;;5.40;99.90;;;;;;5131932;27;20031;-73
2021/12/15 05:10:43;;;;;;;30.33;17.85;;;5.50;99.90;;;;;;5133211;28;20023;-73
2021/12/15 05:13:10;;;;;;;29.02;16.42;;;5.50;99.90;;;;;;5132381;28;20440;-73
2021/12/15 05:15:36;;;;;;;26.73;15.23;;;5.50;99.90;;;;;;5132436;28;20048;-73
2021/12/15 05:18:03;;;;;;;25.80;16.25;;;5.50;99.90;;;;;;5132430;28;20170;-73
2021/12/15 05:20:28;;;;;;;24.48;14.73;;;5.50;99.90;;;;;;5131942;28;20019;-73
2021/12/15 05:22:55;;;;;;;26.40;14.80;;;5.50;99.90;;;;;;5132668;28;20049;-73
2021/12/15 05:25:21;;;;;;;23.58;13.38;;;5.50;99.90;;;;;;5131816;28;20023;-73
2021/12/15 05:27:48;;;;;;;21.75;13.70;;;5.50;99.90;;;;;;5131946;28;20062;-73
2021/12/15 05:30:16;;;;;;;22.05;13.57;;;5.50;99.90;;;;;;5131593;28;20137;-73
2021/12/15 05:32:42;;;;;;;20.80;12.88;;;5.50;99.90;;;;;;5128366;28;20089;-73
2021/12/15 05:35:10;;;;;;;21.60;12.65;;;5.50;99.90;;;;;;5131859;28;20033;-74
2021/12/15 05:37:37;;;;;;;20.83;12.77;;;5.50;99.90;;;;;;5113815;28;20027;-73
2021/12/15 05:40:05;;;;;;;19.27;11.70;;;5.50;99.90;;;;;;5132558;28;20105;-73
2021/12/15 05:42:31;;;;;;;19.95;12.23;;;5.50;99.90;;;;;;5131654;28;20088;-73
2021/12/15 05:44:58;;;;;;;16.88;11.70;;;5.60;99.90;;;;;;5132590;28;20027;-73
2021/12/15 05:47:25;;;;;;;19.13;11.45;;;5.50;99.90;;;;;;5131263;28;20126;-73
2021/12/15 05:49:53;;;;;;;17.75;11.23;;;5.50;99.90;;;;;;5132357;28;20364;-73
2021/12/15 05:52:19;;;;;;;18.52;12.25;;;5.50;99.90;;;;;;5131471;28;20491;-73
2021/12/15 05:54:46;;;;;;;21.30;13.23;;;5.50;99.90;;;;;;5132126;28;20464;-73
2021/12/15 05:57:12;;;;;;;19.60;12.18;;;5.50;99.90;;;;;;5131411;28;20460;-74
2021/12/15 05:59:38;;;;;;;19.58;11.18;;;5.50;99.90;;;;;;5132432;28;20071;-73
2021/12/15 06:02:04;;;;;;;16.58;11.23;;;5.50;99.90;;;;;;5133274;27;20019;-73
2021/12/15 06:04:30;;;;;;;21.15;11.68;;;5.50;99.90;;;;;;5134844;27;20043;-73
2021/12/15 06:06:55;;;;;;;15.43;10.35;;;5.50;99.90;;;;;;5136428;27;20412;-73
2021/12/15 06:09:21;;;;;;;19.20;10.98;;;5.50;99.90;;;;;;5135229;27;20432;-73
2021/12/15 06:11:49;;;;;;;15.68;11.18;;;5.50;99.90;;;;;;5136424;27;20030;-73
2021/12/15 06:14:23;;;;;;;17.75;12.05;;;5.50;99.90;;;;;;5134706;27;20379;-73
2021/12/15 06:16:50;;;;;;;16.40;10.90;;;5.60;99.90;;;;;;5136358;27;20417;-73
2021/12/15 06:19:16;;;;;;;20.02;10.93;;;5.50;99.90;;;;;;5135129;27;20031;-73
2021/12/15 06:21:41;;;;;;;17.10;10.57;;;5.50;99.90;;;;;;5136179;27;20073;-73
2021/12/15 06:24:07;;;;;;;17.67;11.18;;;5.50;99.90;;;;;;5135779;27;20024;-73
2021/12/15 06:26:34;;;;;;;19.92;12.07;;;5.60;99.90;;;;;;5135077;27;20031;-73
2021/12/15 06:29:00;;;;;;;19.95;12.02;;;5.60;99.90;;;;;;5135452;27;20039;-73
2021/12/15 06:31:26;;;;;;;18.27;12.65;;;5.50;99.90;;;;;;5135013;27;20149;-73
2021/12/15 06:33:52;;;;;;;20.08;12.15;;;5.60;99.90;;;;;;5129063;27;20042;-74
2021/12/15 06:36:21;;;;;;;24.33;13.15;;;5.60;99.90;;;;;;5110760;27;20024;-73
2021/12/15 06:38:50;;;;;;;21.58;13.30;;;5.50;99.90;;;;;;5114328;28;20036;-72
2021/12/15 06:41:16;;;;;;;24.05;15.25;;;5.50;99.90;;;;;;5112353;28;20047;-73
2021/12/15 06:43:46;;;;;;;24.63;15.05;;;5.60;99.90;;;;;;5131775;27;20027;-74
2021/12/15 06:59:35;;;;;;;25.35;15.18;;;5.50;99.90;;;;;;5133841;27;20045;-82
2021/12/15 07:02:02;;;;;;;26.38;15.00;;;5.50;99.90;;;;;;5135072;27;20102;-71
2021/12/15 07:04:28;;;;;;;24.52;15.35;;;5.50;99.90;;;;;;5131554;27;20019;-73
2021/12/15 07:06:54;;;;;;;27.25;15.38;;;5.60;99.90;;;;;;5116249;27;20042;-72
2021/12/15 07:09:21;;;;;;;32.30;17.95;;;5.60;99.90;;;;;;5133020;27;20122;-72
2021/12/15 07:11:47;;;;;;;30.70;17.73;;;5.60;99.90;;;;;;5134240;27;20433;-72
2021/12/15 07:14:13;;;;;;;29.20;17.52;;;5.70;99.90;;;;;;5133367;27;20102;-73
2021/12/15 07:16:42;;;;;;;29.92;17.15;;;5.70;99.90;;;;;;5133391;27;20031;-74
2021/12/15 07:19:17;;;;;;;32.40;18.10;;;5.60;99.90;;;;;;5112984;27;20122;-75
2021/12/15 07:21:53;;;;;;;28.88;16.27;;;5.70;99.90;;;;;;5124135;27;20024;-77
2021/12/15 07:24:19;;;;;;;29.67;16.13;;;5.70;99.90;;;;;;5133613;27;20519;-73
2021/12/15 07:26:45;;;;;;;24.02;16.20;;;5.60;99.90;;;;;;5115210;27;20047;-78
2021/12/15 07:29:11;;;;;;;25.23;15.85;;;5.60;99.90;;;;;;5133881;27;20117;-81
2021/12/15 07:31:37;;;;;;;25.48;15.82;;;5.70;99.90;;;;;;5132671;27;20315;-74
2021/12/15 07:34:04;;;;;;;29.10;16.13;;;5.60;99.90;;;;;;5131517;27;20084;-75
2021/12/15 07:36:29;;;;;;;25.25;16.60;;;5.60;99.90;;;;;;5120298;27;20061;-76
2021/12/15 07:38:57;;;;;;;25.77;15.73;;;5.60;99.90;;;;;;5126667;27;20067;-76
2021/12/15 07:41:41;;;;;;;25.58;16.50;;;5.60;99.90;;;;;;5132608;27;20042;-76
2021/12/15 07:44:07;;;;;;;23.85;14.70;;;5.60;99.90;;;;;;5118052;27;20023;-77
2021/12/15 07:46:33;;;;;;;27.63;16.40;;;5.70;99.90;;;;;;5131978;27;20534;-75
2021/12/15 07:48:58;;;;;;;24.02;15.48;;;5.70;99.90;;;;;;5133139;27;20569;-75
2021/12/15 07:51:24;;;;;;;25.13;15.13;;;5.70;99.90;;;;;;5132015;27;20403;-77
2021/12/15 07:53:49;;;;;;;23.13;14.13;;;5.70;99.90;;;;;;5132721;27;20027;-75
2021/12/15 07:56:16;;;;;;;24.00;14.70;;;5.70;99.90;;;;;;5132836;27;20030;-75
2021/12/15 07:58:42;;;;;;;21.60;13.60;;;5.70;99.90;;;;;;5132488;27;20055;-76
2021/12/15 08:01:08;;;;;;;26.75;14.98;;;5.70;99.90;;;;;;5123514;27;20484;-77
2021/12/15 08:03:38;;;;;;;23.17;14.82;;;5.70;99.90;;;;;;5128921;27;20356;-75
2021/12/15 08:06:04;;;;;;;21.83;14.07;;;5.70;99.90;;;;;;5132623;27;20019;-75
2021/12/15 08:08:30;;;;;;;20.25;13.00;;;5.70;99.90;;;;;;5128086;27;20028;-74
2021/12/15 08:10:57;;;;;;;17.77;11.57;;;5.70;99.90;;;;;;5115517;27;20038;-75
2021/12/15 08:13:31;;;;;;;18.67;12.27;;;5.60;99.90;;;;;;5132677;27;20031;-75
2021/12/15 08:15:58;;;;;;;19.23;12.32;;;5.70;99.90;;;;;;5131973;27;20050;-73
2021/12/15 08:18:24;;;;;;;17.05;11.00;;;5.70;99.90;;;;;;5113270;27;20108;-73
2021/12/15 08:20:51;;;;;;;16.65;10.52;;;5.70;99.90;;;;;;5127414;27;20024;-73
2021/12/15 08:23:17;;;;;;;17.77;11.25;;;5.80;99.90;;;;;;5126591;27;20033;-73
2021/12/15 08:25:43;;;;;;;15.88;11.00;;;5.80;99.90;;;;;;5129844;27;20387;-73
2021/12/15 08:28:10;;;;;;;17.90;11.02;;;5.80;99.90;;;;;;5131963;27;20031;-73
2021/12/15 08:30:39;;;;;;;12.80;8.93;;;5.80;99.90;;;;;;5131458;27;20140;-73
2021/12/15 08:33:10;;;;;;;14.20;9.18;;;5.90;99.90;;;;;;5132692;27;20451;-73
2021/12/15 08:35:40;;;;;;;15.68;9.88;;;5.80;99.90;;;;;;5131793;27;20019;-73
2021/12/15 08:38:07;;;;;;;13.25;8.63;;;5.90;99.90;;;;;;5113997;27;20471;-73
2021/12/15 08:40:33;;;;;;;11.93;8.27;;;5.90;99.90;;;;;;5131690;27;20027;-73
2021/12/15 08:42:59;;;;;;;11.43;8.07;;;5.90;99.90;;;;;;5117813;27;20027;-73
2021/12/15 08:45:26;;;;;;;11.85;8.13;;;5.90;99.90;;;;;;5131581;27;20535;-73
2021/12/15 08:47:53;;;;;;;10.52;8.00;;;6.00;99.90;;;;;;5132204;27;20048;-73
2021/12/15 08:50:22;;;;;;;11.65;7.75;;;6.00;99.90;;;;;;5132089;27;20487;-74
2021/12/15 08:52:48;;;;;;;11.57;7.83;;;6.00;99.90;;;;;;5132863;27;20038;-74
2021/12/15 08:55:14;;;;;;;11.20;7.30;;;6.00;99.90;;;;;;5132405;27;20027;-74
2021/12/15 08:57:47;;;;;;;10.88;7.30;;;6.00;99.90;;;;;;5131463;27;20027;-74
2021/12/15 09:00:13;;;;;;;8.95;6.13;;;6.10;99.90;;;;;;5132415;27;20027;-74
2021/12/15 09:02:39;;;;;;;10.02;6.68;;;6.10;99.90;;;;;;5131247;27;20246;-74
2021/12/15 09:05:05;;;;;;;9.02;6.55;;;6.10;99.90;;;;;;5131791;27;20539;-74
2021/12/15 09:07:31;;;;;;;10.20;6.30;;;6.10;99.90;;;;;;5114125;28;20702;-74
2021/12/15 09:09:57;;;;;;;10.80;6.53;;;6.10;99.90;;;;;;5130966;28;20031;-73
2021/12/15 09:12:23;;;;;;;9.05;6.32;;;6.10;99.90;;;;;;5130701;28;20023;-73
2021/12/15 09:14:48;;;;;;;7.65;5.70;;;6.20;99.90;;;;;;5132421;28;20034;-73
2021/12/15 09:17:15;;;;;;;8.32;6.32;;;6.20;99.90;;;;;;5131618;27;20058;-73
2021/12/15 09:19:40;;;;;;;9.38;6.18;;;6.20;99.90;;;;;;5130854;27;20088;-74
2021/12/15 09:22:07;;;;;;;9.70;5.75;;;6.20;99.90;;;;;;5119794;28;20023;-73
2021/12/15 09:24:33;;;;;;;11.85;6.70;;;6.20;99.90;;;;;;5121936;28;20047;-73
2021/12/15 09:26:59;;;;;;;9.82;6.85;;;6.30;99.90;;;;;;5116581;28;20031;-73
2021/12/15 09:29:24;;;;;;;9.00;6.38;;;6.30;99.90;;;;;;5130713;27;20031;-73
2021/12/15 09:31:53;;;;;;;8.82;6.43;;;6.30;99.90;;;;;;5130811;27;20023;-73
2021/12/15 09:34:19;;;;;;;9.82;6.90;;;6.30;99.90;;;;;;5130656;28;20467;-73
2021/12/15 09:36:50;;;;;;;8.90;6.50;;;6.30;99.90;;;;;;5131662;27;20031;-73
2021/12/15 09:39:19;;;;;;;11.45;6.60;;;6.40;99.90;;;;;;5131204;27;20037;-73
2021/12/15 09:41:46;;;;;;;8.38;5.65;;;6.40;99.90;;;;;;5135074;27;20023;-73
2021/12/15 09:44:17;;;;;;;7.40;5.28;;;6.40;99.90;;;;;;5135864;27;20462;-73
2021/12/15 09:57:47;;;;;;;9.57;5.93;;;6.50;99.90;;;;;;5134986;27;20033;-72
2021/12/15 10:03:07;;;;;;;8.98;6.63;;;6.40;99.90;;;;;;5114920;28;20054;-71
2021/12/15 10:11:13;;;;;;;8.25;5.78;;;6.40;99.90;;;;;;5118272;27;20102;-71
2021/12/15 10:19:29;;;;;;;8.10;6.18;;;6.40;99.90;;;;;;5079025;27;20069;-71
2021/12/15 10:22:00;;;;;;;9.32;6.10;;;6.40;99.90;;;;;;5134796;27;20445;-71
2021/12/15 10:24:45;;;;;;;11.30;6.35;;;6.40;99.90;;;;;;5133521;27;20051;-72
2021/12/15 10:27:13;;;;;;;7.05;5.45;;;6.30;99.90;;;;;;5134451;27;20035;-72
2021/12/15 10:30:07;;;;;;;11.93;7.13;;;6.30;99.90;;;;;;5134290;27;20034;-73
2021/12/15 10:32:36;;;;;;;10.85;7.03;;;6.30;99.90;;;;;;5133269;27;20023;-73
2021/12/15 10:35:27;;;;;;;10.23;7.22;;;6.20;99.90;;;;;;5134445;27;20034;-72
2021/12/15 10:38:12;;;;;;;9.15;6.53;;;6.20;99.90;;;;;;5133358;27;20122;-72
2021/12/15 10:40:53;;;;;;;10.75;7.15;;;6.20;99.90;;;;;;5133961;27;20027;-73
2021/12/15 10:43:20;;;;;;;;;;;6.30;99.90;;;;;;5135337;27;20030;-72
2021/12/15 10:45:54;;;;;;;10.48;7.15;;;6.30;99.90;;;;;;5134215;27;19998;-72
2021/12/15 10:48:35;;;;;;;12.23;6.75;;;6.30;99.90;;;;;;5134075;27;20068;-72
2021/12/15 10:51:03;;;;;;;9.38;6.60;;;6.30;99.90;;;;;;5135389;27;20027;-72
2021/12/15 10:53:35;;;;;;;12.88;6.85;;;6.30;99.90;;;;;;5134135;27;20054;-73
2021/12/15 10:56:09;;;;;;;12.68;6.88;;;6.30;99.90;;;;;;5135204;27;20066;-72
2021/12/15 10:58:47;;;;;;;10.27;7.10;;;6.30;99.90;;;;;;5134279;27;20035;-72
2021/12/15 11:01:37;;;;;;;11.70;6.32;;;6.30;99.90;;;;;;5129748;27;20098;-72
2021/12/15 11:04:27;;;;;;;7.97;6.28;;;6.30;99.90;;;;;;5123265;27;20104;-72
2021/12/15 11:07:14;;;;;;;7.30;5.83;;;6.30;99.90;;;;;;5134807;27;20027;-72
2021/12/15 11:10:07;;;;;;;8.68;6.40;;;6.40;99.90;;;;;;5120750;27;20084;-72
2021/12/15 11:12:42;;;;;;;12.40;7.05;;;6.40;99.90;;;;;;5134165;27;20050;-74
2021/12/15 11:15:18;;;;;;;18.35;10.55;;;6.50;99.90;;;;;;5134695;27;20114;-74
2021/12/15 11:18:00;;;;;;;11.00;7.55;;;6.50;99.90;;;;;;5133166;27;20110;-74
2021/12/15 11:20:29;;;;;;;8.85;6.40;;;6.40;99.90;;;;;;5133887;27;20039;-72
2021/12/15 11:23:00;;;;;;;8.50;6.63;;;6.40;99.90;;;;;;5134534;27;20027;-73
2021/12/15 11:26:05;;;;;;;7.97;6.25;;;6.50;99.90;;;;;;5133701;27;20084;-74
2021/12/15 11:28:39;;;;;;;8.25;6.30;;;6.50;99.90;;;;;;5121456;27;20043;-74
2021/12/15 11:31:19;;;;;;;7.70;6.15;;;6.40;99.90;;;;;;5134250;27;20113;-74
2021/12/15 11:33:49;;;;;;;8.35;6.40;;;6.40;99.90;;;;;;5133607;27;20333;-74
2021/12/15 11:36:31;;;;;;;9.07;6.70;;;6.40;99.90;;;;;;5134263;27;20107;-74
2021/12/15 11:39:04;;;;;;;9.35;6.70;;;6.40;99.90;;;;;;5133674;27;20028;-74
2021/12/15 11:41:40;;;;;;;8.43;6.53;;;6.40;99.90;;;;;;5132118;27;20431;-75
2021/12/15 11:44:12;;;;;;;8.65;6.57;;;6.30;99.90;;;;;;5134065;27;20024;-74
2021/12/15 11:46:55;;;;;;;7.63;6.20;;;6.30;99.90;;;;;;5133098;27;20053;-74
2021/12/15 11:49:25;;;;;;;9.85;6.50;;;6.30;99.90;;;;;;5112761;28;20501;-73
2021/12/15 11:52:00;;;;;;;9.25;7.18;;;6.30;99.90;;;;;;5112927;28;20055;-74
2021/12/15 11:54:38;;;;;;;9.73;6.97;;;6.30;99.90;;;;;;5119965;27;20063;-74
2021/12/15 11:57:07;;;;;;;8.00;6.82;;;6.30;99.90;;;;;;5134197;27;20027;-74
2021/12/15 11:59:44;;;;;;;8.43;6.20;;;6.30;99.90;;;;;;5132529;27;20031;-74
2021/12/15 12:02:25;;;;;;;10.38;7.88;;;6.30;99.90;;;;;;5132256;27;20023;-74
2021/12/15 12:04:54;;;;;;;9.20;6.95;;;6.30;99.90;;;;;;5132707;27;20025;-74
2021/12/15 12:07:19;;;;;;;9.50;7.15;;;6.30;99.90;;;;;;5132104;27;20106;-73
2021/12/15 12:09:48;;;;;;;11.13;7.25;;;6.30;99.90;;;;;;5131975;27;20295;-79
2021/12/15 12:12:16;;;;;;;9.10;7.25;;;6.40;99.90;;;;;;5132729;27;20027;-75
2021/12/15 12:14:49;;;;;;;8.43;6.80;;;6.40;99.90;;;;;;5132563;27;20049;-75
2021/12/15 12:17:21;;;;;;;8.82;6.93;;;6.40;99.90;;;;;;5132483;27;20514;-75
2021/12/15 12:19:59;;;;;;;7.95;6.18;;;6.40;99.90;;;;;;5132384;27;20368;-75
2021/12/15 12:22:28;;;;;;;7.55;6.22;;;6.40;99.90;;;;;;5133031;27;20023;-75
2021/12/15 12:24:56;;;;;;;9.40;6.95;;;6.30;99.90;;;;;;5133004;27;20417;-75
2021/12/15 12:27:24;;;;;;;9.60;6.82;;;6.40;99.90;;;;;;5133386;27;20061;-75
2021/12/15 12:29:52;;;;;;;8.10;5.97;;;6.40;99.90;;;;;;5132198;27;20039;-75
2021/12/15 12:32:19;;;;;;;9.80;6.97;;;6.40;99.90;;;;;;5132576;27;20468;-75
2021/12/15 12:34:45;;;;;;;7.47;5.97;;;6.40;99.90;;;;;;5132262;27;20027;-75
2021/12/15 12:37:13;;;;;;;6.93;6.13;;;6.30;99.90;;;;;;5132811;27;20127;-75
2021/12/15 12:39:39;;;;;;;6.97;5.82;;;6.40;99.90;;;;;;5130745;27;20503;-75
2021/12/15 12:42:05;;;;;;;7.35;5.10;;;6.40;99.90;;;;;;5132852;27;20023;-76
2021/12/15 12:44:43;;;;;;;5.75;4.07;;;6.40;99.90;;;;;;5132314;27;20105;-76
2021/12/15 12:47:31;;;;;;;5.75;4.30;;;6.40;99.90;;;;;;5132825;27;20544;-73
2021/12/15 12:50:21;;;;;;;7.38;4.53;;;6.40;99.90;;;;;;5132956;27;20064;-74
2021/12/15 13:01:12;;;;;;;4.93;4.43;;;6.40;99.90;;;;;;5131604;27;20517;-76
2021/12/15 13:03:54;;;;;;;7.88;5.50;;;6.30;99.90;;;;;;5131525;27;20425;-75
2021/12/15 13:06:25;;;;;;;8.63;5.50;;;6.30;99.90;;;;;;5129732;27;20045;-75
2021/12/15 13:08:55;;;;;;;7.40;5.90;;;6.30;99.90;;;;;;5127981;27;20148;-75
2021/12/15 13:11:22;;;;;;;7.17;4.97;;;6.30;99.90;;;;;;5132624;27;20064;-75
2021/12/15 13:14:08;;;;;;;6.70;5.10;;;6.30;99.90;;;;;;5131641;28;20740;-75
2021/12/15 13:16:49;;;;;;;6.15;5.53;;;6.30;99.90;;;;;;5131894;27;20037;-76
2021/12/15 13:19:28;;;;;;;7.90;5.25;;;6.30;99.90;;;;;;5131579;27;20572;-75
2021/12/15 13:22:46;;;;;;;6.13;5.53;;;6.30;99.90;;;;;;5131969;27;20436;-76
2021/12/15 13:31:05;;;;;;;4.25;3.75;;;6.30;99.90;;;;;;5130427;28;20452;-75
2021/12/15 13:33:32;;;;;;;5.63;3.58;;;6.20;99.90;;;;;;5131325;28;20462;-73
2021/12/15 13:36:22;;;;;;;8.48;4.55;;;6.20;99.90;;;;;;5131288;28;20030;-75
2021/12/15 13:38:52;;;;;;;4.32;3.72;;;6.20;99.90;;;;;;5130058;28;20059;-75
2021/12/15 13:44:17;;;;;;;8.13;5.45;;;6.20;99.90;;;;;;5132080;28;20061;-74
2021/12/15 13:46:50;;;;;;;6.28;4.80;;;6.10;99.90;;;;;;5110173;28;20505;-74
2021/12/15 13:49:21;;;;;;;6.03;4.80;;;6.10;99.90;;;;;;5131174;28;20084;-74
2021/12/15 13:51:56;;;;;;;5.47;4.53;;;6.00;99.90;;;;;;5130941;28;20440;-74
2021/12/15 13:54:34;;;;;;;7.20;5.30;;;6.10;99.90;;;;;;5113451;28;20057;-74
2021/12/15 13:56:59;;;;;;;7.13;4.57;;;6.10;99.90;;;;;;5131723;28;20031;-74
2021/12/15 13:59:34;;;;;;;7.63;4.93;;;6.10;99.90;;;;;;5112986;28;20031;-74
2021/12/15 14:02:11;;;;;;;5.05;4.18;;;6.10;99.90;;;;;;5096814;28;20065;-74
2021/12/15 14:04:45;;;;;;;5.00;4.50;;;6.10;99.90;;;;;;5130131;28;20092;-74
2021/12/15 14:07:31;;;;;;;6.00;5.38;;;6.10;99.90;;;;;;5113386;28;20433;-74
2021/12/15 14:10:12;;;;;;;8.13;5.82;;;6.10;99.90;;;;;;5130756;28;20039;-74
2021/12/15 14:12:47;;;;;;;6.30;5.38;;;6.10;99.90;;;;;;5129952;28;20114;-74
2021/12/15 14:15:36;;;;;;;7.20;5.53;;;6.00;99.90;;;;;;5124348;28;20023;-74
2021/12/15 14:18:16;;;;;;;6.55;5.68;;;5.90;99.90;;;;;;5127436;28;20383;-74
2021/12/15 14:20:47;;;;;;;;;;;5.90;99.90;;;;;;5130924;27;20027;-75
2021/12/15 14:23:22;;;;;;;6.97;5.07;;;5.90;99.90;;;;;;5123481;27;19914;-75
2021/12/15 14:25:49;;;;;;;6.97;5.30;;;5.90;99.90;;;;;;5114129;28;20090;-75
2021/12/15 14:28:23;;;;;;;6.43;4.72;;;5.80;99.90;;;;;;5122908;27;20478;-75
2021/12/15 14:31:01;;;;;;;6.97;5.07;;;5.90;99.90;;;;;;5135643;27;20110;-75
2021/12/15 14:33:46;;;;;;;7.15;4.88;;;5.90;99.90;;;;;;5135249;27;20035;-75